createdAt,value
2018-07-30T00:02:00.994Z,17.10
2018-07-30T00:04:29.221Z,17.10
2018-07-30T00:06:57.461Z,17.00
2018-07-30T00:09:25.680Z,17.00
2018-07-30T00:11:53.897Z,17.00
2018-07-30T00:14:24.042Z,17.00
2018-07-30T00:16:52.231Z,17.00
2018-07-30T00:19:20.450Z,16.90
2018-07-30T00:21:49.282Z,16.80
2018-07-30T00:24:17.491Z,16.80
2018-07-30T00:26:45.677Z,16.70
2018-07-30T00:29:14.578Z,16.60
2018-07-30T00:31:42.742Z,16.50
2018-07-30T00:34:10.921Z,16.40
2018-07-30T00:36:39.501Z,16.40
2018-07-30T00:39:10.346Z,16.40
2018-07-30T00:41:38.615Z,16.50
2018-07-30T00:44:07.225Z,16.50
2018-07-30T00:46:35.920Z,16.60
2018-07-30T00:49:04.318Z,16.60
2018-07-30T00:51:32.737Z,16.60
2018-07-30T00:54:01.046Z,16.60
2018-07-30T00:56:29.318Z,16.50
2018-07-30T00:58:57.500Z,16.40
2018-07-30T01:01:25.744Z,16.30
2018-07-30T01:03:53.958Z,16.10
2018-07-30T01:06:22.190Z,16.10
2018-07-30T01:08:50.441Z,16.10
2018-07-30T01:11:18.619Z,16.10
2018-07-30T01:16:14.810Z,16.20
2018-07-30T01:21:18.061Z,16.30
2018-07-30T01:23:46.232Z,16.40
2018-07-30T01:26:19.966Z,16.40
2018-07-30T01:28:48.158Z,16.40
2018-07-30T01:31:16.386Z,16.40
2018-07-30T01:33:44.894Z,16.40
2018-07-30T01:36:13.036Z,16.30
2018-07-30T01:38:42.916Z,16.20
2018-07-30T01:41:11.061Z,16.10
2018-07-30T01:43:39.246Z,16.10
2018-07-30T01:46:07.444Z,16.00
2018-07-30T01:48:35.652Z,16.00
2018-07-30T01:51:04.082Z,16.00
2018-07-30T01:53:32.518Z,16.00
2018-07-30T01:56:01.421Z,16.00
2018-07-30T01:58:29.633Z,15.90
2018-07-30T02:00:57.827Z,15.90
2018-07-30T02:03:26.757Z,15.90
2018-07-30T02:05:55.294Z,15.90
2018-07-30T02:08:23.525Z,15.90
2018-07-30T02:10:51.723Z,15.90
2018-07-30T02:13:19.898Z,15.90
2018-07-30T02:15:48.108Z,16.00
2018-07-30T02:18:16.259Z,16.00
2018-07-30T02:20:44.441Z,16.00
2018-07-30T02:23:12.663Z,16.00
2018-07-30T02:25:40.857Z,16.00
2018-07-30T02:28:09.026Z,16.00
2018-07-30T02:30:37.188Z,16.00
2018-07-30T02:33:05.474Z,16.00
2018-07-30T02:35:33.666Z,15.90
2018-07-30T02:38:01.860Z,15.90
2018-07-30T02:40:30.073Z,15.80
2018-07-30T02:42:58.270Z,15.80
2018-07-30T02:45:26.500Z,15.70
2018-07-30T02:47:54.694Z,15.70
2018-07-30T02:50:23.016Z,15.70
2018-07-30T02:52:51.211Z,15.60
2018-07-30T02:55:20.053Z,15.60
2018-07-30T02:57:48.239Z,15.50
2018-07-30T03:00:16.423Z,15.40
2018-07-30T03:02:46.074Z,15.40
2018-07-30T03:05:14.262Z,15.40
2018-07-30T03:07:42.718Z,15.40
2018-07-30T03:10:11.470Z,15.40
2018-07-30T03:12:40.133Z,15.40
2018-07-30T03:15:08.369Z,15.50
2018-07-30T03:17:36.757Z,15.40
2018-07-30T03:20:05.210Z,15.30
2018-07-30T03:22:33.425Z,15.20
2018-07-30T03:25:01.659Z,15.20
2018-07-30T03:27:30.310Z,15.20
2018-07-30T03:29:58.525Z,15.20
2018-07-30T03:32:26.732Z,15.10
2018-07-30T03:34:54.965Z,15.10
2018-07-30T03:37:23.260Z,15.00
2018-07-30T03:39:51.714Z,15.00
2018-07-30T03:42:20.552Z,15.00
2018-07-30T03:44:48.714Z,15.10
2018-07-30T03:47:17.684Z,15.30
2018-07-30T03:49:50.855Z,15.40
2018-07-30T03:52:19.069Z,15.40
2018-07-30T03:54:48.023Z,15.40
2018-07-30T03:57:16.750Z,15.40
2018-07-30T03:59:45.007Z,15.40
2018-07-30T04:02:13.230Z,15.40
2018-07-30T04:04:41.393Z,15.30
2018-07-30T04:07:09.615Z,15.30
2018-07-30T04:09:37.799Z,15.40
2018-07-30T04:12:06.272Z,15.30
2018-07-30T04:14:35.694Z,15.30
2018-07-30T04:17:03.874Z,15.30
2018-07-30T04:19:32.121Z,15.40
2018-07-30T04:22:00.323Z,15.40
2018-07-30T04:24:28.489Z,15.50
2018-07-30T04:26:56.693Z,15.60
2018-07-30T04:29:24.950Z,15.70
2018-07-30T04:31:53.115Z,15.70
2018-07-30T04:34:21.306Z,15.90
2018-07-30T04:36:49.842Z,16.20
2018-07-30T04:39:18.034Z,16.40
2018-07-30T04:41:46.259Z,16.50
2018-07-30T04:44:14.451Z,16.70
2018-07-30T04:46:42.985Z,16.80
2018-07-30T04:49:11.201Z,17.40
2018-07-30T04:51:40.107Z,18.70
2018-07-30T04:54:08.288Z,20.00
2018-07-30T04:56:36.483Z,21.20
2018-07-30T04:59:04.700Z,22.10
2018-07-30T05:01:32.922Z,23.00
2018-07-30T05:04:01.224Z,23.80
2018-07-30T05:06:29.484Z,24.60
2018-07-30T05:08:58.241Z,25.20
2018-07-30T05:11:26.417Z,25.70
2018-07-30T05:13:54.637Z,26.10
2018-07-30T05:16:23.609Z,26.30
2018-07-30T05:18:51.822Z,26.70
2018-07-30T05:21:20.037Z,26.50
2018-07-30T05:23:48.235Z,26.70
2018-07-30T05:26:16.442Z,26.90
2018-07-30T05:28:44.597Z,27.00
2018-07-30T05:31:13.139Z,26.90
2018-07-30T05:33:41.335Z,27.10
2018-07-30T05:36:09.604Z,27.40
2018-07-30T05:38:37.797Z,27.80
2018-07-30T05:41:06.698Z,28.00
2018-07-30T05:43:34.894Z,28.10
2018-07-30T05:46:03.150Z,27.80
2018-07-30T05:48:31.370Z,28.00
2018-07-30T05:50:59.595Z,28.00
2018-07-30T05:53:28.276Z,28.30
2018-07-30T05:55:56.439Z,28.90
2018-07-30T05:58:26.105Z,29.40
2018-07-30T06:00:54.721Z,29.70
2018-07-30T06:03:22.918Z,30.30
2018-07-30T06:05:51.202Z,30.70
2018-07-30T06:08:19.412Z,31.10
2018-07-30T06:10:48.493Z,31.70
2018-07-30T06:13:17.099Z,32.30
2018-07-30T06:15:45.266Z,32.80
2018-07-30T06:18:13.442Z,32.50
2018-07-30T06:20:41.586Z,31.90
2018-07-30T06:23:10.091Z,32.10
2018-07-30T06:25:38.296Z,32.20
2018-07-30T06:28:06.509Z,32.10
2018-07-30T06:30:36.182Z,32.40
2018-07-30T06:33:04.373Z,32.40
2018-07-30T06:35:32.835Z,32.80
2018-07-30T06:38:01.002Z,33.40
2018-07-30T06:40:29.228Z,33.50
2018-07-30T06:42:57.419Z,32.90
2018-07-30T06:45:25.589Z,32.50
2018-07-30T06:47:53.806Z,33.10
2018-07-30T06:50:21.997Z,33.80
2018-07-30T06:52:50.213Z,34.20
2018-07-30T06:55:18.406Z,34.60
2018-07-30T06:57:46.552Z,34.40
2018-07-30T07:00:14.745Z,34.90
2018-07-30T07:02:42.917Z,35.30
2018-07-30T07:05:11.714Z,35.20
2018-07-30T07:07:39.901Z,35.00
2018-07-30T07:10:10.006Z,34.90
2018-07-30T07:12:38.357Z,35.00
2018-07-30T07:15:08.586Z,35.10
2018-07-30T07:17:36.855Z,35.40
2018-07-30T07:20:05.249Z,35.30
2018-07-30T07:22:33.454Z,35.10
2018-07-30T07:25:01.644Z,34.50
2018-07-30T07:27:29.873Z,34.10
2018-07-30T07:29:58.066Z,33.80
2018-07-30T07:32:26.254Z,33.90
2018-07-30T07:34:54.446Z,34.00
2018-07-30T07:37:23.207Z,34.30
2018-07-30T07:39:51.886Z,34.40
2018-07-30T07:42:20.121Z,34.80
2018-07-30T07:44:48.306Z,34.30
2018-07-30T07:47:16.498Z,33.80
2018-07-30T07:49:46.587Z,34.00
2018-07-30T07:52:17.273Z,34.30
2018-07-30T07:54:46.273Z,34.80
2018-07-30T07:57:14.462Z,34.50
2018-07-30T07:59:42.714Z,34.20
2018-07-30T08:02:10.911Z,34.20
2018-07-30T08:04:39.542Z,34.40
2018-07-30T08:07:07.750Z,34.30
2018-07-30T08:09:35.976Z,34.40
2018-07-30T08:12:04.246Z,34.60
2018-07-30T08:14:32.447Z,34.80
2018-07-30T08:17:03.704Z,34.60
2018-07-30T08:19:31.866Z,34.80
2018-07-30T08:22:00.063Z,34.70
2018-07-30T08:24:28.294Z,34.60
2018-07-30T08:26:56.505Z,34.40
2018-07-30T08:29:24.692Z,34.30
2018-07-30T08:31:53.226Z,34.50
2018-07-30T08:34:21.375Z,34.40
2018-07-30T08:36:49.537Z,34.50
2018-07-30T08:39:17.814Z,34.30
2018-07-30T08:41:45.996Z,34.00
2018-07-30T08:44:16.986Z,34.00
2018-07-30T08:46:45.235Z,34.00
2018-07-30T08:49:13.413Z,34.50
2018-07-30T08:51:41.579Z,34.60
2018-07-30T08:54:09.782Z,34.10
2018-07-30T08:56:37.961Z,34.00
2018-07-30T08:59:06.239Z,34.50
2018-07-30T09:01:34.456Z,34.80
2018-07-30T09:04:02.642Z,35.00
2018-07-30T09:06:30.833Z,35.10
2018-07-30T09:08:59.484Z,34.50
2018-07-30T09:11:28.761Z,34.50
2018-07-30T09:13:56.961Z,34.70
2018-07-30T09:16:25.312Z,34.80
2018-07-30T09:18:53.519Z,35.10
2018-07-30T09:21:21.735Z,34.90
2018-07-30T09:23:49.901Z,35.10
2018-07-30T09:26:18.298Z,35.00
2018-07-30T09:28:46.747Z,35.50
2018-07-30T09:31:16.702Z,35.10
2018-07-30T09:33:44.873Z,35.40
2018-07-30T09:36:14.508Z,35.50
2018-07-30T09:38:42.682Z,35.60
2018-07-30T09:41:10.905Z,35.90
2018-07-30T09:43:39.104Z,36.50
2018-07-30T09:46:07.337Z,36.50
2018-07-30T09:48:35.565Z,36.00
2018-07-30T09:51:03.817Z,35.70
2018-07-30T09:53:33.014Z,35.80
2018-07-30T09:56:01.189Z,36.50
2018-07-30T09:58:30.917Z,37.00
2018-07-30T10:01:05.392Z,37.40
2018-07-30T10:03:34.206Z,37.00
2018-07-30T10:06:02.603Z,37.20
2018-07-30T10:08:31.064Z,37.80
2018-07-30T10:10:59.602Z,37.90
2018-07-30T10:13:28.636Z,38.10
2018-07-30T10:15:56.782Z,37.90
2018-07-30T10:18:25.125Z,37.70
2018-07-30T10:20:53.623Z,37.90
2018-07-30T10:23:22.215Z,37.70
2018-07-30T10:28:18.350Z,38.10
2018-07-30T10:30:47.099Z,38.10
2018-07-30T10:33:15.244Z,38.00
2018-07-30T10:35:43.439Z,38.20
2018-07-30T10:38:11.710Z,37.90
2018-07-30T10:40:40.911Z,38.10
2018-07-30T10:43:09.842Z,38.30
2018-07-30T10:45:38.049Z,38.10
2018-07-30T10:48:06.345Z,38.30
2018-07-30T10:50:34.544Z,38.10
2018-07-30T10:53:02.742Z,37.20
2018-07-30T10:55:32.853Z,36.60
2018-07-30T10:58:01.052Z,36.80
2018-07-30T11:00:29.223Z,36.80
2018-07-30T11:02:57.843Z,37.50
2018-07-30T11:05:26.028Z,37.50
2018-07-30T11:07:54.291Z,37.60
2018-07-30T11:10:22.417Z,37.20
2018-07-30T11:12:50.658Z,37.00
2018-07-30T11:15:18.877Z,36.70
2018-07-30T11:17:47.708Z,36.70
2018-07-30T11:20:15.937Z,36.50
2018-07-30T11:22:44.144Z,36.50
2018-07-30T11:25:13.093Z,36.50
2018-07-30T11:27:41.834Z,36.50
2018-07-30T11:30:10.048Z,36.60
2018-07-30T11:32:38.285Z,36.40
2018-07-30T11:35:06.566Z,36.70
2018-07-30T11:37:34.792Z,36.40
2018-07-30T11:40:03.017Z,36.40
2018-07-30T11:42:31.202Z,36.50
2018-07-30T11:44:59.839Z,36.60
2018-07-30T11:47:28.659Z,37.00
2018-07-30T11:50:00.598Z,37.20
2018-07-30T11:54:56.738Z,38.00
2018-07-30T11:57:27.691Z,38.60
2018-07-30T11:59:55.906Z,38.60
2018-07-30T12:02:24.113Z,38.60
2018-07-30T12:04:52.894Z,38.60
2018-07-30T12:07:21.140Z,38.70
2018-07-30T12:09:49.315Z,39.00
2018-07-30T12:12:17.634Z,39.00
2018-07-30T12:14:45.909Z,39.10
2018-07-30T12:17:14.082Z,39.30
2018-07-30T12:22:10.375Z,39.10
2018-07-30T12:24:38.562Z,39.20
2018-07-30T12:27:06.839Z,39.10
2018-07-30T12:29:35.068Z,38.80
2018-07-30T12:32:03.634Z,38.10
2018-07-30T12:34:31.778Z,38.60
2018-07-30T12:37:00.093Z,39.20
2018-07-30T12:39:28.381Z,39.70
2018-07-30T12:41:56.830Z,39.80
2018-07-30T12:44:24.984Z,39.30
2018-07-30T12:46:53.213Z,38.40
2018-07-30T12:51:49.692Z,37.90
2018-07-30T12:54:17.909Z,38.40
2018-07-30T12:56:46.132Z,39.10
2018-07-30T12:59:14.318Z,39.50
2018-07-30T13:01:42.500Z,39.50
2018-07-30T13:04:10.738Z,39.70
2018-07-30T13:06:39.214Z,39.90
2018-07-30T13:09:07.930Z,40.20
2018-07-30T13:11:36.162Z,40.00
2018-07-30T13:14:04.850Z,39.80
2018-07-30T13:16:33.271Z,39.70
2018-07-30T13:19:01.465Z,39.40
2018-07-30T13:21:29.675Z,39.30
2018-07-30T13:23:57.934Z,39.00
2018-07-30T13:26:26.166Z,39.20
2018-07-30T13:28:54.723Z,39.10
2018-07-30T13:31:23.365Z,38.00
2018-07-30T13:33:51.575Z,37.30
2018-07-30T13:36:19.709Z,37.20
2018-07-30T13:38:48.439Z,37.60
2018-07-30T13:41:16.677Z,37.90
2018-07-30T13:43:44.857Z,38.30
2018-07-30T13:46:13.094Z,38.50
2018-07-30T13:48:42.189Z,38.60
2018-07-30T13:51:10.353Z,38.90
2018-07-30T13:53:38.510Z,39.20
2018-07-30T13:56:06.921Z,38.90
2018-07-30T13:58:35.798Z,39.00
2018-07-30T14:01:04.140Z,39.00
2018-07-30T14:03:33.253Z,39.30
2018-07-30T14:08:29.365Z,40.70
2018-07-30T14:10:57.537Z,40.50
2018-07-30T14:13:26.041Z,40.60
2018-07-30T14:15:54.189Z,41.00
2018-07-30T14:18:22.361Z,41.10
2018-07-30T14:20:50.670Z,40.90
2018-07-30T14:23:18.935Z,40.80
2018-07-30T14:25:47.546Z,40.90
2018-07-30T14:28:15.871Z,41.10
2018-07-30T14:30:44.008Z,41.20
2018-07-30T14:33:12.157Z,41.70
2018-07-30T14:35:40.419Z,41.20
2018-07-30T14:38:08.622Z,41.50
2018-07-30T14:40:36.788Z,41.60
2018-07-30T14:43:05.038Z,41.50
2018-07-30T14:45:33.411Z,41.40
2018-07-30T14:48:01.619Z,41.40
2018-07-30T14:50:29.859Z,41.10
2018-07-30T14:52:58.058Z,40.80
2018-07-30T14:55:26.310Z,40.90
2018-07-30T14:57:54.474Z,40.50
2018-07-30T15:00:22.673Z,39.90
2018-07-30T15:02:50.942Z,39.50
2018-07-30T15:05:21.598Z,38.90
2018-07-30T15:07:50.734Z,38.90
2018-07-30T15:10:19.694Z,38.90
2018-07-30T15:12:47.893Z,38.60
2018-07-30T15:15:16.074Z,38.90
2018-07-30T15:17:44.425Z,40.10
2018-07-30T15:20:12.594Z,41.10
2018-07-30T15:22:42.098Z,41.20
2018-07-30T15:25:10.349Z,41.30
2018-07-30T15:27:38.548Z,41.40
2018-07-30T15:30:06.941Z,41.30
2018-07-30T15:32:35.562Z,40.50
2018-07-30T15:35:03.886Z,40.20
2018-07-30T15:37:32.094Z,39.30
2018-07-30T15:40:00.515Z,38.60
2018-07-30T15:42:28.777Z,37.50
2018-07-30T15:44:57.017Z,37.00
2018-07-30T15:47:25.238Z,36.40
2018-07-30T15:49:53.461Z,36.00
2018-07-30T15:52:21.648Z,35.70
2018-07-30T15:54:49.946Z,35.60
2018-07-30T15:57:18.392Z,35.80
2018-07-30T15:59:46.562Z,36.10
2018-07-30T16:02:14.803Z,36.70
2018-07-30T16:04:43.084Z,36.70
2018-07-30T16:07:11.310Z,36.70
2018-07-30T16:09:39.489Z,36.90
2018-07-30T16:12:07.665Z,37.40
2018-07-30T16:14:35.845Z,38.30
2018-07-30T16:17:04.173Z,38.90
2018-07-30T16:22:01.919Z,39.30
2018-07-30T16:24:30.267Z,39.90
2018-07-30T16:26:58.405Z,39.90
2018-07-30T16:29:26.711Z,39.80
2018-07-30T16:31:55.469Z,39.80
2018-07-30T16:34:24.071Z,40.40
2018-07-30T16:39:20.854Z,41.40
2018-07-30T16:41:49.015Z,41.50
2018-07-30T16:44:17.259Z,41.20
2018-07-30T16:46:45.511Z,41.20
2018-07-30T16:49:13.645Z,41.50
2018-07-30T16:51:41.943Z,41.30
2018-07-30T16:54:10.194Z,41.00
2018-07-30T16:56:38.405Z,40.80
2018-07-30T16:59:06.635Z,40.00
2018-07-30T17:01:35.208Z,39.50
2018-07-30T17:04:04.026Z,38.80
2018-07-30T17:06:32.255Z,38.00
2018-07-30T17:09:00.454Z,37.20
2018-07-30T17:11:29.074Z,36.80
2018-07-30T17:13:57.305Z,36.30
2018-07-30T17:16:25.506Z,36.10
2018-07-30T17:18:53.712Z,35.60
2018-07-30T17:21:22.340Z,35.20
2018-07-30T17:23:50.562Z,34.90
2018-07-30T17:26:18.715Z,34.50
2018-07-30T17:28:47.130Z,34.20
2018-07-30T17:31:15.362Z,33.90
2018-07-30T17:33:43.657Z,33.50
2018-07-30T17:36:11.845Z,33.30
2018-07-30T17:38:40.068Z,33.10
2018-07-30T17:41:08.303Z,32.80
2018-07-30T17:43:36.582Z,32.60
2018-07-30T17:46:04.894Z,32.30
2018-07-30T17:48:33.114Z,32.10
2018-07-30T17:51:01.303Z,31.90
2018-07-30T17:53:29.567Z,31.70
2018-07-30T17:55:57.806Z,31.50
2018-07-30T17:58:26.031Z,31.40
2018-07-30T18:00:54.203Z,31.30
2018-07-30T18:03:22.417Z,31.10
2018-07-30T18:05:50.627Z,31.00
2018-07-30T18:08:18.885Z,30.90
2018-07-30T18:10:47.107Z,30.70
2018-07-30T18:13:15.283Z,30.60
2018-07-30T18:15:43.495Z,30.50
2018-07-30T18:18:11.676Z,30.40
2018-07-30T18:20:39.877Z,30.40
2018-07-30T18:23:08.112Z,30.40
2018-07-30T18:25:36.284Z,30.40
2018-07-30T18:28:04.549Z,30.40
2018-07-30T18:30:33.465Z,30.40
2018-07-30T18:33:01.559Z,30.30
2018-07-30T18:35:29.797Z,30.30
2018-07-30T18:37:58.029Z,30.20
2018-07-30T18:40:26.190Z,30.00
2018-07-30T18:42:54.508Z,29.90
2018-07-30T18:45:22.676Z,29.70
2018-07-30T18:47:50.886Z,29.60
2018-07-30T18:50:19.037Z,29.40
2018-07-30T18:52:47.766Z,29.30
2018-07-30T18:55:15.983Z,29.10
2018-07-30T18:57:44.341Z,29.00
2018-07-30T19:00:12.899Z,28.70
2018-07-30T19:02:41.063Z,28.50
2018-07-30T19:05:09.510Z,28.30
2018-07-30T19:07:37.758Z,28.00
2018-07-30T19:10:06.517Z,27.70
2018-07-30T19:12:35.546Z,27.60
2018-07-30T19:15:03.924Z,27.40
2018-07-30T19:17:32.209Z,27.20
2018-07-30T19:20:00.430Z,27.00
2018-07-30T19:22:28.582Z,26.80
2018-07-30T19:24:56.809Z,26.70
2018-07-30T19:27:25.005Z,26.50
2018-07-30T19:29:53.173Z,26.30
2018-07-30T19:32:21.400Z,26.10
2018-07-30T19:34:49.542Z,26.00
2018-07-30T19:37:17.791Z,25.80
2018-07-30T19:39:45.973Z,25.60
2018-07-30T19:42:15.847Z,25.40
2018-07-30T19:44:44.072Z,25.40
2018-07-30T19:47:12.242Z,25.20
2018-07-30T19:49:40.422Z,25.10
2018-07-30T19:52:08.668Z,25.00
2018-07-30T19:54:36.873Z,24.90
2018-07-30T19:57:05.223Z,24.80
2018-07-30T19:59:33.461Z,24.60
2018-07-30T20:02:01.717Z,24.50
2018-07-30T20:04:29.893Z,24.40
2018-07-30T20:06:58.121Z,24.30
2018-07-30T20:09:26.438Z,24.10
2018-07-30T20:11:54.701Z,24.00
2018-07-30T20:14:22.919Z,23.90
2018-07-30T20:16:51.176Z,23.90
2018-07-30T20:19:19.620Z,23.90
2018-07-30T20:21:47.879Z,23.80
2018-07-30T20:24:16.014Z,23.70
2018-07-30T20:26:44.223Z,23.60
2018-07-30T20:29:12.525Z,23.50
2018-07-30T20:31:40.758Z,23.50
2018-07-30T20:34:08.981Z,23.40
2018-07-30T20:36:37.180Z,23.30
2018-07-30T20:39:07.693Z,23.20
2018-07-30T20:41:35.882Z,23.30
2018-07-30T20:44:04.103Z,23.30
2018-07-30T20:46:32.297Z,23.20
2018-07-30T20:49:00.501Z,23.10
2018-07-30T20:51:28.717Z,23.10
2018-07-30T20:53:56.885Z,23.00
2018-07-30T20:56:25.063Z,22.90
2018-07-30T20:58:53.268Z,22.90
2018-07-30T21:01:21.442Z,22.80
2018-07-30T21:03:49.586Z,22.80
2018-07-30T21:06:17.777Z,22.70
2018-07-30T21:08:46.032Z,22.60
2018-07-30T21:11:14.207Z,22.50
2018-07-30T21:13:42.498Z,22.40
2018-07-30T21:16:10.706Z,22.20
2018-07-30T21:18:38.916Z,22.10
2018-07-30T21:21:07.148Z,22.10
2018-07-30T21:23:35.380Z,22.00
2018-07-30T21:26:03.722Z,22.00
2018-07-30T21:28:31.934Z,21.90
2018-07-30T21:31:00.423Z,21.80
2018-07-30T21:33:28.606Z,21.70
2018-07-30T21:35:56.838Z,21.60
2018-07-30T21:38:25.083Z,21.60
2018-07-30T21:40:56.350Z,21.50
2018-07-30T21:43:24.567Z,21.40
2018-07-30T21:45:52.758Z,21.40
2018-07-30T21:48:21.734Z,21.30
2018-07-30T21:50:49.891Z,21.30
2018-07-30T21:53:18.095Z,21.30
2018-07-30T21:55:46.341Z,21.30
2018-07-30T21:58:14.531Z,21.30
2018-07-30T22:00:47.023Z,21.30
2018-07-30T22:03:15.296Z,21.30
2018-07-30T22:05:43.518Z,21.20
2018-07-30T22:08:12.471Z,21.20
2018-07-30T22:10:40.712Z,21.10
2018-07-30T22:13:08.991Z,21.10
2018-07-30T22:15:37.208Z,21.10
2018-07-30T22:18:05.446Z,21.10
2018-07-30T22:20:33.751Z,21.00
2018-07-30T22:23:01.953Z,20.90
2018-07-30T22:25:30.193Z,20.90
2018-07-30T22:27:58.339Z,20.80
2018-07-30T22:30:26.554Z,20.70
2018-07-30T22:32:54.898Z,20.70
2018-07-30T22:35:23.125Z,20.60
2018-07-30T22:37:51.624Z,20.50
2018-07-30T22:40:19.806Z,20.50
2018-07-30T22:42:48.048Z,20.30
2018-07-30T22:45:16.252Z,20.30
2018-07-30T22:47:44.483Z,20.20
2018-07-30T22:50:12.745Z,20.30
2018-07-30T22:52:41.604Z,20.20
2018-07-30T22:55:09.805Z,20.10
2018-07-30T22:57:38.369Z,20.20
2018-07-30T23:00:07.489Z,20.30
2018-07-30T23:02:35.778Z,20.30
2018-07-30T23:05:05.773Z,20.30
2018-07-30T23:07:33.975Z,20.20
2018-07-30T23:10:02.121Z,20.20
2018-07-30T23:12:30.440Z,20.10
2018-07-30T23:14:58.624Z,20.10
2018-07-30T23:17:27.713Z,20.00
2018-07-30T23:19:55.870Z,20.00
2018-07-30T23:22:24.077Z,19.90
2018-07-30T23:24:52.281Z,19.80
2018-07-30T23:27:20.481Z,19.80
2018-07-30T23:29:48.689Z,19.70
2018-07-30T23:32:16.866Z,19.60
2018-07-30T23:34:45.061Z,19.40
2018-07-30T23:37:13.335Z,19.30
2018-07-30T23:39:41.502Z,19.20
2018-07-30T23:42:09.739Z,19.10
2018-07-30T23:44:37.988Z,19.10
2018-07-30T23:47:06.137Z,19.10
2018-07-30T23:49:34.324Z,19.10
2018-07-30T23:52:02.647Z,19.00
2018-07-30T23:54:30.833Z,19.00
2018-07-30T23:56:59.021Z,19.00
2018-07-30T23:59:27.589Z,19.00
